Time;durP1;ratioP1;P1;durP2;ratioP2;P2;SDS_P1;SDS_P2;PMS_P1;PMS_P2;Temp;Humidity;BMP_temperature;BMP_pressure;BME280_temperature;BME280_humidity;BME280_pressure;Samples;Min_cycle;Max_cycle;Signal;HPM_P1;HPM_P2
2022/05/11 00:02:07;;;;;;;1.57;1.47;;;;;;;;;;5004966;28;20626;-63
2022/05/11 00:04:34;;;;;;;2.13;1.37;;;;;;;;;;5016580;28;20187;-62
2022/05/11 00:07:01;;;;;;;2.07;1.80;;;;;;;;;;5008890;28;20309;-62
2022/05/11 00:09:28;;;;;;;2.83;1.60;;;;;;;;;;5008504;28;20258;-62
2022/05/11 00:11:55;;;;;;;1.70;1.53;;;;;;;;;;5009665;28;20212;-62
2022/05/11 00:14:22;;;;;;;1.53;1.43;;;;;;;;;;4988169;28;20196;-62
2022/05/11 00:16:50;;;;;;;1.50;1.40;;;;;;;;;;5010039;28;20807;-62
2022/05/11 00:19:19;;;;;;;1.97;1.37;;;;;;;;;;5011890;28;20199;-62
2022/05/11 00:21:46;;;;;;;2.50;1.50;;;;;;;;;;5008381;28;20717;-62
2022/05/11 00:24:13;;;;;;;1.77;1.60;;;;;;;;;;5008211;28;20276;-62
2022/05/11 00:26:41;;;;;;;2.30;1.70;;;;;;;;;;5012710;28;20231;-62
2022/05/11 00:29:08;;;;;;;2.10;1.67;;;;;;;;;;5010557;28;20184;-62
2022/05/11 00:31:35;;;;;;;5.60;2.10;;;;;;;;;;5015616;28;20692;-62
2022/05/11 00:34:02;;;;;;;2.00;1.80;;;;;;;;;;5008807;28;20191;-61
2022/05/11 00:36:29;;;;;;;2.43;1.33;;;;;;;;;;5005608;28;20878;-62
2022/05/11 00:38:57;;;;;;;1.53;1.30;;;;;;;;;;5006713;28;20208;-62
2022/05/11 00:41:24;;;;;;;2.10;1.50;;;;;;;;;;5007063;28;20195;-62
2022/05/11 00:43:53;;;;;;;1.97;1.43;;;;;;;;;;5008497;28;20250;-62
2022/05/11 00:46:48;;;;;;;1.40;1.30;;;;;;;;;;5014996;28;20234;-62
2022/05/11 00:49:36;;;;;;;1.33;1.23;;;;;;;;;;5009766;28;20242;-62
2022/05/11 00:52:12;;;;;;;1.90;1.70;;;;;;;;;;5000392;28;20641;-62
2022/05/11 00:55:02;;;;;;;1.77;1.43;;;;;;;;;;5005246;28;20207;-62
2022/05/11 00:57:58;;;;;;;1.80;1.57;;;;;;;;;;5005384;28;20274;-62
2022/05/11 01:00:25;;;;;;;2.20;1.40;;;;;;;;;;4984450;28;20289;-62
2022/05/11 01:03:00;;;;;;;1.90;1.57;;;;;;;;;;5006312;28;20219;-62
2022/05/11 01:05:30;;;;;;;2.13;1.43;;;;;;;;;;4992460;28;20657;-62
2022/05/11 01:08:04;;;;;;;1.50;1.40;;;;;;;;;;5004789;28;20322;-62
2022/05/11 01:10:35;;;;;;;3.20;1.60;;;;;;;;;;5006552;28;20207;-62
2022/05/11 01:13:06;;;;;;;1.53;1.40;;;;;;;;;;4991075;28;20199;-62
2022/05/11 01:15:37;;;;;;;1.63;1.53;;;;;;;;;;4994239;28;20224;-62
2022/05/11 01:18:12;;;;;;;2.80;1.47;;;;;;;;;;5020520;28;20617;-62
2022/05/11 01:20:41;;;;;;;1.60;1.20;;;;;;;;;;5004635;28;20230;-62
2022/05/11 01:23:33;;;;;;;2.00;1.17;;;;;;;;;;4989459;28;20819;-62
2022/05/11 01:26:05;;;;;;;3.17;1.40;;;;;;;;;;5005577;28;20204;-62
2022/05/11 01:28:42;;;;;;;1.60;1.33;;;;;;;;;;5007888;28;20205;-62
2022/05/11 01:31:15;;;;;;;2.00;1.30;;;;;;;;;;4995080;28;20207;-62
2022/05/11 01:33:46;;;;;;;1.93;1.53;;;;;;;;;;4990529;28;20230;-62
2022/05/11 01:36:31;;;;;;;1.70;1.43;;;;;;;;;;4997543;28;20262;-62
2022/05/11 01:39:08;;;;;;;3.43;1.40;;;;;;;;;;4988580;28;20535;-62
2022/05/11 01:41:43;;;;;;;1.90;1.50;;;;;;;;;;5009390;28;20203;-61
2022/05/11 01:44:16;;;;;;;3.87;1.53;;;;;;;;;;4987583;28;20235;-62
2022/05/11 01:46:48;;;;;;;1.47;1.30;;;;;;;;;;4993439;28;20200;-62
2022/05/11 01:49:22;;;;;;;1.33;1.23;;;;;;;;;;4989869;28;20188;-62
2022/05/11 01:51:53;;;;;;;2.37;1.37;;;;;;;;;;4998573;28;20230;-62
2022/05/11 01:54:22;;;;;;;1.83;1.30;;;;;;;;;;5003867;28;20204;-62
2022/05/11 01:56:54;;;;;;;1.70;1.30;;;;;;;;;;4996392;28;20219;-62
2022/05/11 01:59:25;;;;;;;1.50;1.20;;;;;;;;;;5005812;28;20210;-62
2022/05/11 02:01:58;;;;;;;1.70;1.30;;;;;;;;;;5006545;28;20207;-62
2022/05/11 02:10:08;;;;;;;2.80;1.20;;;;;;;;;;4999693;28;20191;-62
2022/05/11 02:12:52;;;;;;;1.93;1.30;;;;;;;;;;5007574;28;20248;-62
2022/05/11 02:15:22;;;;;;;2.93;1.40;;;;;;;;;;5006437;28;20235;-62
2022/05/11 02:17:53;;;;;;;1.60;1.40;;;;;;;;;;5006978;28;20199;-62
2022/05/11 02:20:23;;;;;;;1.77;1.50;;;;;;;;;;5005024;28;20207;-62
2022/05/11 02:22:53;;;;;;;1.40;1.23;;;;;;;;;;5006767;28;20199;-62
2022/05/11 02:25:24;;;;;;;2.50;1.47;;;;;;;;;;5010817;28;20598;-62
2022/05/11 02:27:54;;;;;;;2.03;1.50;;;;;;;;;;5004851;28;20210;-62
2022/05/11 02:30:26;;;;;;;1.57;1.47;;;;;;;;;;4999668;28;20192;-62
2022/05/11 02:32:53;;;;;;;2.13;1.20;;;;;;;;;;5015949;28;20265;-61
2022/05/11 02:35:21;;;;;;;1.40;1.20;;;;;;;;;;5010808;28;20194;-62
2022/05/11 02:37:53;;;;;;;1.47;1.17;;;;;;;;;;5008041;28;20191;-62
2022/05/11 02:40:22;;;;;;;2.40;1.57;;;;;;;;;;5000905;28;20207;-61
2022/05/11 02:42:49;;;;;;;1.73;1.50;;;;;;;;;;5004954;28;20211;-62
2022/05/11 02:45:17;;;;;;;2.07;1.40;;;;;;;;;;5008674;28;20202;-62
2022/05/11 02:47:45;;;;;;;1.40;1.30;;;;;;;;;;5009892;28;20188;-62
2022/05/11 02:50:14;;;;;;;1.77;1.63;;;;;;;;;;5001475;28;20208;-62
2022/05/11 02:52:41;;;;;;;1.77;1.57;;;;;;;;;;5011541;28;20195;-61
2022/05/11 02:55:09;;;;;;;1.87;1.10;;;;;;;;;;5008633;28;20202;-62
2022/05/11 02:57:37;;;;;;;2.63;1.60;;;;;;;;;;5009173;28;20196;-62
2022/05/11 03:00:05;;;;;;;2.60;1.47;;;;;;;;;;5000480;28;20208;-62
2022/05/11 03:02:32;;;;;;;3.43;1.60;;;;;;;;;;5003374;28;20285;-62
2022/05/11 03:04:59;;;;;;;1.17;1.07;;;;;;;;;;5007953;28;20214;-62
2022/05/11 03:07:26;;;;;;;1.40;1.30;;;;;;;;;;5010109;28;20243;-62
2022/05/11 03:09:53;;;;;;;1.87;1.30;;;;;;;;;;5005502;28;20637;-62
2022/05/11 03:12:22;;;;;;;1.63;1.27;;;;;;;;;;5015068;28;20207;-62
2022/05/11 03:14:50;;;;;;;1.67;1.30;;;;;;;;;;5004749;28;20204;-62
2022/05/11 03:17:17;;;;;;;1.60;1.50;;;;;;;;;;5011822;28;20729;-62
2022/05/11 03:19:44;;;;;;;2.00;1.47;;;;;;;;;;5009026;28;20651;-62
2022/05/11 03:22:11;;;;;;;1.30;1.20;;;;;;;;;;5009066;28;20246;-62
2022/05/11 03:24:38;;;;;;;2.63;1.40;;;;;;;;;;5009984;28;20680;-62
2022/05/11 03:27:05;;;;;;;1.50;1.30;;;;;;;;;;5024127;28;20215;-62
2022/05/11 03:29:33;;;;;;;2.30;1.50;;;;;;;;;;5009540;28;20203;-62
2022/05/11 03:34:47;;;;;;;1.30;1.20;;;;;;;;;;5003713;28;20249;-62
2022/05/11 03:37:16;;;;;;;1.37;1.27;;;;;;;;;;5001409;28;20220;-62
2022/05/11 03:39:43;;;;;;;1.40;1.30;;;;;;;;;;5005794;28;20208;-62
2022/05/11 03:42:15;;;;;;;1.63;1.40;;;;;;;;;;5015056;28;20191;-62
2022/05/11 03:44:42;;;;;;;2.07;1.43;;;;;;;;;;4999291;28;20215;-62
2022/05/11 03:47:09;;;;;;;2.60;1.70;;;;;;;;;;5012383;28;20203;-62
2022/05/11 03:49:37;;;;;;;1.50;1.40;;;;;;;;;;5009166;28;20215;-62
2022/05/11 03:52:05;;;;;;;2.33;1.67;;;;;;;;;;5003644;28;20212;-62
2022/05/11 03:54:36;;;;;;;1.40;1.30;;;;;;;;;;5008734;28;20215;-62
2022/05/11 03:57:05;;;;;;;2.33;1.30;;;;;;;;;;5025604;28;20853;-62
2022/05/11 03:59:36;;;;;;;1.93;1.40;;;;;;;;;;5008860;28;20196;-62
2022/05/11 04:02:11;;;;;;;2.07;1.50;;;;;;;;;;5015960;28;20203;-63
2022/05/11 04:04:41;;;;;;;1.37;1.27;;;;;;;;;;5008297;28;20210;-63
2022/05/11 04:07:13;;;;;;;2.13;1.30;;;;;;;;;;5020669;28;20289;-63
2022/05/11 04:09:44;;;;;;;1.30;1.20;;;;;;;;;;5023521;28;20184;-63
2022/05/11 04:12:13;;;;;;;3.60;1.53;;;;;;;;;;5012967;28;20660;-63
2022/05/11 04:14:42;;;;;;;1.83;1.53;;;;;;;;;;5006906;28;20223;-66
2022/05/11 04:17:12;;;;;;;2.20;1.10;;;;;;;;;;5010123;28;20207;-63
2022/05/11 04:19:44;;;;;;;2.17;1.40;;;;;;;;;;5007946;28;20207;-63
2022/05/11 04:22:12;;;;;;;4.90;1.57;;;;;;;;;;5007277;28;20634;-62
2022/05/11 04:24:42;;;;;;;3.03;1.40;;;;;;;;;;4991951;28;20723;-63
2022/05/11 04:27:13;;;;;;;1.33;1.10;;;;;;;;;;4999661;28;20219;-62
2022/05/11 04:29:55;;;;;;;1.37;1.27;;;;;;;;;;5007329;28;20280;-62
2022/05/11 04:32:25;;;;;;;1.60;1.20;;;;;;;;;;5006092;28;20530;-63
2022/05/11 04:34:54;;;;;;;1.87;1.17;;;;;;;;;;5009085;28;20200;-62
2022/05/11 04:37:24;;;;;;;1.40;1.30;;;;;;;;;;5024136;28;20277;-62
2022/05/11 04:39:55;;;;;;;1.83;1.37;;;;;;;;;;5006494;28;20784;-62
2022/05/11 04:42:26;;;;;;;1.30;1.20;;;;;;;;;;5010188;28;20223;-64
2022/05/11 04:44:58;;;;;;;1.43;1.33;;;;;;;;;;4992119;28;20266;-63
2022/05/11 04:47:32;;;;;;;1.63;1.23;;;;;;;;;;5013515;28;20644;-64
2022/05/11 04:50:01;;;;;;;2.63;1.30;;;;;;;;;;4999206;28;20214;-63
2022/05/11 04:52:30;;;;;;;2.00;1.40;;;;;;;;;;5005832;28;20211;-63
2022/05/11 04:55:01;;;;;;;1.93;1.20;;;;;;;;;;5008658;28;20208;-62
2022/05/11 04:57:32;;;;;;;1.27;1.10;;;;;;;;;;5012400;28;20248;-64
2022/05/11 05:00:01;;;;;;;1.63;1.53;;;;;;;;;;4989716;28;20570;-64
2022/05/11 05:02:36;;;;;;;1.93;1.63;;;;;;;;;;5009894;28;20223;-64
2022/05/11 05:05:10;;;;;;;2.13;1.50;;;;;;;;;;5011790;28;20211;-64
2022/05/11 05:07:41;;;;;;;2.30;1.43;;;;;;;;;;5019116;28;20269;-64
2022/05/11 05:10:21;;;;;;;1.77;1.60;;;;;;;;;;5005164;28;20215;-62
2022/05/11 05:12:54;;;;;;;1.30;1.20;;;;;;;;;;5007052;28;20184;-62
2022/05/11 05:15:28;;;;;;;2.07;1.57;;;;;;;;;;5004718;28;20211;-62
2022/05/11 05:18:01;;;;;;;1.50;1.40;;;;;;;;;;5014160;28;20696;-62
2022/05/11 05:20:28;;;;;;;2.30;1.63;;;;;;;;;;5007630;28;20196;-61
2022/05/11 05:22:55;;;;;;;4.60;2.40;;;;;;;;;;5010210;28;20806;-61
2022/05/11 05:25:22;;;;;;;8.30;1.70;;;;;;;;;;5013791;28;20187;-64
2022/05/11 05:27:50;;;;;;;3.63;2.10;;;;;;;;;;5011162;28;20882;-64
2022/05/11 05:33:05;;;;;;;5.50;2.33;;;;;;;;;;4999269;28;20631;-63
2022/05/11 05:35:32;;;;;;;5.07;2.57;;;;;;;;;;4995971;28;20191;-63
2022/05/11 05:38:04;;;;;;;6.57;2.27;;;;;;;;;;5009829;28;20227;-62
2022/05/11 05:40:36;;;;;;;5.57;2.50;;;;;;;;;;5003662;28;20208;-63
2022/05/11 05:43:05;;;;;;;4.13;2.20;;;;;;;;;;5007119;28;20291;-63
2022/05/11 05:45:35;;;;;;;6.90;2.60;;;;;;;;;;4999674;28;20494;-65
2022/05/11 05:48:06;;;;;;;3.43;2.10;;;;;;;;;;5003873;28;20184;-65
2022/05/11 05:50:36;;;;;;;7.53;2.37;;;;;;;;;;4991289;28;20576;-65
2022/05/11 05:53:05;;;;;;;9.03;2.60;;;;;;;;;;5002647;28;20280;-64
2022/05/11 05:55:32;;;;;;;5.97;2.50;;;;;;;;;;4992172;28;20650;-63
2022/05/11 05:57:59;;;;;;;7.70;2.97;;;;;;;;;;5000129;28;20531;-63
2022/05/11 06:00:27;;;;;;;6.33;3.00;;;;;;;;;;5009187;28;20246;-65
2022/05/11 06:02:54;;;;;;;4.87;2.50;;;;;;;;;;5006421;28;20216;-65
2022/05/11 06:05:22;;;;;;;7.83;2.70;;;;;;;;;;5012388;28;20616;-63
2022/05/11 06:07:49;;;;;;;8.60;2.70;;;;;;;;;;5007931;28;20285;-63
2022/05/11 06:10:16;;;;;;;4.87;2.63;;;;;;;;;;5007889;28;20199;-63
2022/05/11 06:12:43;;;;;;;5.10;2.60;;;;;;;;;;5001345;28;20223;-63
2022/05/11 06:15:13;;;;;;;5.93;2.30;;;;;;;;;;5006690;28;20679;-63
2022/05/11 06:17:40;;;;;;;4.23;2.53;;;;;;;;;;5006747;28;20599;-63
2022/05/11 06:20:09;;;;;;;5.47;2.37;;;;;;;;;;5004344;28;20192;-62
2022/05/11 06:22:37;;;;;;;4.60;2.10;;;;;;;;;;5004591;28;20207;-62
2022/05/11 06:25:05;;;;;;;5.50;2.13;;;;;;;;;;5008946;28;20211;-62
2022/05/11 06:27:33;;;;;;;4.83;2.37;;;;;;;;;;5006396;28;20254;-62
2022/05/11 06:30:01;;;;;;;3.17;2.27;;;;;;;;;;5005559;28;20209;-62
2022/05/11 06:32:28;;;;;;;7.05;3.00;;;;;;;;;;4996417;28;20875;-65
2022/05/11 06:34:55;;;;;;;57.63;14.50;;;;;;;;;;5002675;28;20191;-64
2022/05/11 06:37:24;;;;;;;42.30;11.83;;;;;;;;;;5015435;28;20281;-64
2022/05/11 06:39:51;;;;;;;35.10;9.40;;;;;;;;;;5005342;28;20192;-64
2022/05/11 06:42:20;;;;;;;31.23;8.90;;;;;;;;;;4977643;28;20545;-63
2022/05/11 06:44:52;;;;;;;27.80;8.50;;;;;;;;;;4996455;28;20273;-64
2022/05/11 06:47:22;;;;;;;25.80;8.13;;;;;;;;;;4988926;28;20601;-64
2022/05/11 06:49:54;;;;;;;30.73;7.27;;;;;;;;;;5003654;28;20425;-64
2022/05/11 06:52:27;;;;;;;17.60;6.50;;;;;;;;;;5006120;28;20203;-63
2022/05/11 07:00:35;;;;;;;13.97;5.47;;;;;;;;;;5000757;28;20196;-64
2022/05/11 07:03:17;;;;;;;12.40;4.83;;;;;;;;;;5006794;28;20219;-64
2022/05/11 07:05:48;;;;;;;10.73;4.23;;;;;;;;;;5016184;28;20261;-66
2022/05/11 07:08:17;;;;;;;16.13;5.23;;;;;;;;;;5006586;28;20243;-65
2022/05/11 07:12:17;;;;;;;9.33;4.30;;;;;;;;;;5009167;28;20210;-62
2022/05/11 07:13:36;;;;;;;10.27;3.80;;;;;;;;;;5012523;28;20203;-63
2022/05/11 07:16:09;;;;;;;10.27;4.30;;;;;;;;;;5003372;28;20207;-64
2022/05/11 07:18:37;;;;;;;8.00;3.83;;;;;;;;;;5007702;28;20979;-63
2022/05/11 07:21:08;;;;;;;10.60;3.50;;;;;;;;;;5009396;28;20535;-64
2022/05/11 07:23:38;;;;;;;8.03;3.10;;;;;;;;;;5010234;28;20203;-64
2022/05/11 07:26:09;;;;;;;6.80;2.93;;;;;;;;;;5010427;28;20207;-64
2022/05/11 07:28:38;;;;;;;6.93;2.97;;;;;;;;;;5004398;28;20262;-64
2022/05/11 07:31:05;;;;;;;7.67;2.63;;;;;;;;;;5009065;28;20203;-64
2022/05/11 07:33:33;;;;;;;5.03;2.77;;;;;;;;;;5011985;28;20218;-65
2022/05/11 07:36:00;;;;;;;7.50;2.70;;;;;;;;;;5010612;28;20544;-65
2022/05/11 07:38:27;;;;;;;8.33;2.93;;;;;;;;;;5005348;28;20248;-65
2022/05/11 07:40:55;;;;;;;7.10;3.30;;;;;;;;;;5008099;28;20227;-65
2022/05/11 07:43:22;;;;;;;4.50;2.40;;;;;;;;;;5007268;28;20273;-64
2022/05/11 07:45:49;;;;;;;3.50;2.13;;;;;;;;;;5007599;28;20262;-65
2022/05/11 07:48:18;;;;;;;4.87;2.40;;;;;;;;;;5000554;28;20199;-64
2022/05/11 07:50:45;;;;;;;3.77;2.30;;;;;;;;;;4998253;28;20831;-63
2022/05/11 07:53:13;;;;;;;5.20;2.20;;;;;;;;;;5010634;28;20869;-63
2022/05/11 07:55:40;;;;;;;5.07;2.40;;;;;;;;;;5008235;28;20192;-63
2022/05/11 08:00:52;;;;;;;4.40;2.03;;;;;;;;;;5012259;28;20238;-62
2022/05/11 08:03:20;;;;;;;3.97;2.00;;;;;;;;;;5006831;28;20212;-63
2022/05/11 08:05:48;;;;;;;2.80;2.00;;;;;;;;;;5011745;28;20200;-62
2022/05/11 08:08:19;;;;;;;4.23;2.33;;;;;;;;;;4989079;28;20231;-63
2022/05/11 08:10:49;;;;;;;3.10;2.00;;;;;;;;;;4992755;28;20546;-63
2022/05/11 08:13:20;;;;;;;2.37;1.80;;;;;;;;;;5012887;28;20207;-64
2022/05/11 08:15:52;;;;;;;2.70;1.77;;;;;;;;;;5006032;28;20231;-63
2022/05/11 08:18:23;;;;;;;8.87;2.10;;;;;;;;;;5006177;28;20240;-63
2022/05/11 08:21:04;;;;;;;4.20;1.93;;;;;;;;;;5006320;28;20234;-63
2022/05/11 08:23:38;;;;;;;3.90;1.70;;;;;;;;;;5010344;28;20196;-62
2022/05/11 08:26:07;;;;;;;4.83;1.70;;;;;;;;;;4983032;28;20223;-64
2022/05/11 08:28:38;;;;;;;2.63;1.67;;;;;;;;;;5008296;28;20645;-63
2022/05/11 08:33:58;;;;;;;2.80;1.83;;;;;;;;;;5005564;28;20271;-63
2022/05/11 08:36:38;;;;;;;1.87;1.67;;;;;;;;;;5005038;28;20437;-64
2022/05/11 08:39:08;;;;;;;3.03;1.83;;;;;;;;;;5004752;28;20215;-64
2022/05/11 08:41:53;;;;;;;2.63;1.73;;;;;;;;;;5007691;28;20196;-64
2022/05/11 08:44:31;;;;;;;3.53;1.53;;;;;;;;;;5007663;28;20637;-64
2022/05/11 08:47:16;;;;;;;4.20;1.67;;;;;;;;;;5000899;28;20216;-64
2022/05/11 08:50:17;;;;;;;3.47;1.70;;;;;;;;;;5005692;28;20245;-64
2022/05/11 08:52:57;;;;;;;2.33;1.50;;;;;;;;;;5004407;28;20207;-62
2022/05/11 08:55:37;;;;;;;2.50;1.60;;;;;;;;;;5004955;28;20195;-63
2022/05/11 08:58:06;;;;;;;5.07;1.57;;;;;;;;;;5002983;28;20265;-64
2022/05/11 09:00:35;;;;;;;2.30;1.70;;;;;;;;;;5007118;28;20203;-65
2022/05/11 09:03:08;;;;;;;3.93;1.60;;;;;;;;;;5009375;28;20728;-63
2022/05/11 09:05:35;;;;;;;2.27;1.40;;;;;;;;;;5008339;28;20849;-65
2022/05/11 09:08:04;;;;;;;2.10;1.30;;;;;;;;;;5004240;28;20227;-65
2022/05/11 09:10:34;;;;;;;1.77;1.50;;;;;;;;;;5007245;28;20191;-64
2022/05/11 09:13:03;;;;;;;3.07;1.30;;;;;;;;;;5015935;28;20740;-64
2022/05/11 09:15:49;;;;;;;4.47;1.40;;;;;;;;;;5004769;28;20392;-64
2022/05/11 09:18:25;;;;;;;1.83;1.43;;;;;;;;;;5004479;28;20307;-64
2022/05/11 09:20:56;;;;;;;1.90;1.33;;;;;;;;;;4998325;28;20196;-62
2022/05/11 09:23:36;;;;;;;2.03;1.20;;;;;;;;;;5011959;28;20558;-64
2022/05/11 09:26:09;;;;;;;1.70;1.20;;;;;;;;;;5007439;28;20198;-63
2022/05/11 09:28:49;;;;;;;2.07;1.33;;;;;;;;;;5004479;28;20200;-68
2022/05/11 09:31:28;;;;;;;3.17;1.33;;;;;;;;;;5009885;28;21292;-65
2022/05/11 09:34:04;;;;;;;5.30;1.20;;;;;;;;;;5008364;28;20199;-64
2022/05/11 09:37:07;;;;;;;3.33;1.23;;;;;;;;;;5005711;28;20303;-63
2022/05/11 09:40:02;;;;;;;2.07;1.30;;;;;;;;;;4988751;28;20254;-62
2022/05/11 09:42:58;;;;;;;1.90;1.47;;;;;;;;;;5011190;28;20210;-61
2022/05/11 09:45:50;;;;;;;2.27;1.30;;;;;;;;;;4990420;28;20188;-64
2022/05/11 09:48:31;;;;;;;2.97;1.37;;;;;;;;;;4987812;28;20618;-64
2022/05/11 09:51:19;;;;;;;1.40;1.10;;;;;;;;;;4992426;28;20214;-65
2022/05/11 09:53:53;;;;;;;2.13;1.20;;;;;;;;;;5004743;28;20212;-65
2022/05/11 09:56:55;;;;;;;4.87;1.30;;;;;;;;;;4989116;28;20211;-63
2022/05/11 09:59:27;;;;;;;1.47;0.90;;;;;;;;;;5005820;28;20230;-62
2022/05/11 10:02:19;;;;;;;2.60;1.20;;;;;;;;;;5014067;28;20195;-64
2022/05/11 10:04:57;;;;;;;2.93;1.30;;;;;;;;;;4991304;28;20204;-64
2022/05/11 10:07:27;;;;;;;5.63;1.60;;;;;;;;;;5003851;28;20309;-63
2022/05/11 10:10:04;;;;;;;1.60;1.40;;;;;;;;;;4990970;28;20266;-62
2022/05/11 10:12:36;;;;;;;1.73;1.27;;;;;;;;;;4993872;28;20676;-63
2022/05/11 10:24:06;;;;;;;1.93;1.50;;;;;;;;;;5010532;28;20281;-64
2022/05/11 10:26:42;;;;;;;1.60;1.30;;;;;;;;;;5003084;28;20215;-62
2022/05/11 10:29:23;;;;;;;2.13;1.33;;;;;;;;;;4996213;28;20241;-63
2022/05/11 10:32:07;;;;;;;1.67;1.20;;;;;;;;;;5007531;28;20919;-63
2022/05/11 10:34:44;;;;;;;4.17;1.60;;;;;;;;;;4997654;28;20251;-63
2022/05/11 10:37:25;;;;;;;3.20;1.50;;;;;;;;;;5007226;28;20191;-64
2022/05/11 10:40:04;;;;;;;2.50;1.57;;;;;;;;;;4986660;28;20281;-65
2022/05/11 10:42:38;;;;;;;3.60;1.53;;;;;;;;;;5005747;28;20214;-63
2022/05/11 10:45:21;;;;;;;4.77;1.40;;;;;;;;;;4989418;28;20901;-63
2022/05/11 10:48:00;;;;;;;7.77;2.07;;;;;;;;;;5006513;28;20631;-62
2022/05/11 10:50:40;;;;;;;3.60;1.57;;;;;;;;;;4992028;28;20226;-62
2022/05/11 10:53:19;;;;;;;2.37;1.53;;;;;;;;;;4994133;28;20215;-62
2022/05/11 10:55:49;;;;;;;2.17;1.73;;;;;;;;;;5002285;28;20204;-62
2022/05/11 10:58:17;;;;;;;4.80;1.40;;;;;;;;;;4998774;28;20219;-61
2022/05/11 11:01:17;;;;;;;2.83;1.60;;;;;;;;;;4999898;28;20836;-62
2022/05/11 11:04:03;;;;;;;2.87;1.43;;;;;;;;;;5002974;28;20214;-62
2022/05/11 11:09:57;;;;;;;2.80;1.73;;;;;;;;;;4996577;28;20199;-63
2022/05/11 11:12:51;;;;;;;4.93;1.80;;;;;;;;;;4989300;28;20295;-63
2022/05/11 11:15:26;;;;;;;4.00;2.10;;;;;;;;;;4989525;28;20204;-63
2022/05/11 11:17:57;;;;;;;4.97;2.10;;;;;;;;;;4979937;28;20493;-63
2022/05/11 11:20:27;;;;;;;2.37;1.60;;;;;;;;;;4971231;28;20204;-62
2022/05/11 11:23:17;;;;;;;4.43;1.77;;;;;;;;;;4991877;28;20204;-62
2022/05/11 11:25:46;;;;;;;1.77;1.50;;;;;;;;;;4992659;28;20225;-62
2022/05/11 11:28:15;;;;;;;4.23;1.77;;;;;;;;;;4994323;28;20845;-62
2022/05/11 11:31:04;;;;;;;4.00;2.07;;;;;;;;;;4988659;28;20220;-64
2022/05/11 11:33:35;;;;;;;2.30;1.53;;;;;;;;;;5002000;28;20201;-63
2022/05/11 11:36:32;;;;;;;2.97;1.77;;;;;;;;;;4991399;28;20269;-64
2022/05/11 11:39:04;;;;;;;2.93;1.77;;;;;;;;;;4998763;28;20569;-65
2022/05/11 11:41:55;;;;;;;4.93;1.70;;;;;;;;;;5001385;28;20205;-62
2022/05/11 11:44:32;;;;;;;3.73;1.83;;;;;;;;;;4955206;28;20829;-63
2022/05/11 11:47:02;;;;;;;2.20;1.50;;;;;;;;;;5004142;28;20679;-64
2022/05/11 11:49:34;;;;;;;2.00;1.63;;;;;;;;;;4992089;28;20203;-64
2022/05/11 11:52:09;;;;;;;1.83;1.33;;;;;;;;;;4998022;28;20306;-64
2022/05/11 11:54:51;;;;;;;1.50;1.20;;;;;;;;;;5001940;28;20249;-64
2022/05/11 11:57:26;;;;;;;3.57;1.77;;;;;;;;;;4999415;28;20258;-65
2022/05/11 12:00:05;;;;;;;2.90;1.60;;;;;;;;;;5001359;28;20230;-65
2022/05/11 12:02:45;;;;;;;2.30;1.43;;;;;;;;;;4996859;28;20207;-62
2022/05/11 12:05:27;;;;;;;3.90;2.03;;;;;;;;;;5007227;28;20210;-63
2022/05/11 12:16:58;;;;;;;3.03;1.40;;;;;;;;;;5005782;28;20737;-62
2022/05/11 12:19:32;;;;;;;4.00;1.33;;;;;;;;;;5007265;28;20227;-62
2022/05/11 12:22:15;;;;;;;1.83;1.10;;;;;;;;;;5006697;28;20207;-62
2022/05/11 12:24:45;;;;;;;2.37;1.43;;;;;;;;;;4987907;28;20234;-63
2022/05/11 12:27:13;;;;;;;3.77;1.50;;;;;;;;;;5004428;28;20219;-64
2022/05/11 12:29:59;;;;;;;4.63;1.80;;;;;;;;;;5005962;28;20234;-64
2022/05/11 12:32:33;;;;;;;1.87;1.23;;;;;;;;;;5008061;28;20196;-64
2022/05/11 12:35:23;;;;;;;2.00;1.27;;;;;;;;;;4990577;28;20218;-64
2022/05/11 12:37:59;;;;;;;2.57;1.30;;;;;;;;;;5002675;28;20208;-64
2022/05/11 12:40:28;;;;;;;2.17;1.50;;;;;;;;;;4975449;28;20203;-64
2022/05/11 12:43:08;;;;;;;1.83;1.20;;;;;;;;;;4982376;28;20187;-64
2022/05/11 12:45:44;;;;;;;1.50;1.30;;;;;;;;;;5004330;28;20196;-62
2022/05/11 12:48:20;;;;;;;1.53;1.20;;;;;;;;;;5001502;28;20277;-63
2022/05/11 12:50:58;;;;;;;2.27;1.40;;;;;;;;;;5003497;28;20567;-64
2022/05/11 12:53:32;;;;;;;2.87;1.30;;;;;;;;;;5001529;28;20207;-61
2022/05/11 12:56:15;;;;;;;2.23;1.30;;;;;;;;;;4987155;28;20273;-60
2022/05/11 12:59:02;;;;;;;3.50;1.30;;;;;;;;;;4996815;28;20519;-63
2022/05/11 13:01:35;;;;;;;2.70;1.30;;;;;;;;;;4999673;28;20204;-63
2022/05/11 13:04:23;;;;;;;2.00;1.30;;;;;;;;;;4991545;28;20223;-62
2022/05/11 13:06:52;;;;;;;2.37;1.40;;;;;;;;;;4994822;28;20231;-62
2022/05/11 13:09:25;;;;;;;2.97;1.17;;;;;;;;;;5000268;28;20204;-62
2022/05/11 13:12:00;;;;;;;1.27;1.10;;;;;;;;;;4999392;28;20200;-61
2022/05/11 13:14:32;;;;;;;4.63;1.17;;;;;;;;;;4980270;28;20222;-61
2022/05/11 13:17:08;;;;;;;1.70;1.27;;;;;;;;;;5001517;28;20212;-63
2022/05/11 13:19:40;;;;;;;1.83;1.47;;;;;;;;;;5006827;28;20207;-62
2022/05/11 13:22:15;;;;;;;1.30;1.10;;;;;;;;;;5002367;28;20667;-63
2022/05/11 13:24:49;;;;;;;3.70;1.63;;;;;;;;;;5005671;28;20207;-62
2022/05/11 13:27:32;;;;;;;1.60;1.10;;;;;;;;;;5000813;28;20211;-62
2022/05/11 13:30:14;;;;;;;3.63;1.30;;;;;;;;;;4994557;28;20196;-62
2022/05/11 13:32:49;;;;;;;1.90;1.30;;;;;;;;;;4999297;28;20192;-64
2022/05/11 13:35:28;;;;;;;2.70;1.33;;;;;;;;;;5000142;28;20234;-61
2022/05/11 13:37:55;;;;;;;8.43;1.70;;;;;;;;;;5020739;28;20253;-64
2022/05/11 13:40:26;;;;;;;1.50;1.30;;;;;;;;;;5003800;28;20216;-63
2022/05/11 13:42:54;;;;;;;1.60;1.20;;;;;;;;;;5007442;28;20673;-65
2022/05/11 13:45:22;;;;;;;2.73;1.17;;;;;;;;;;5008576;28;20222;-63
2022/05/11 13:50:52;;;;;;;2.07;1.33;;;;;;;;;;4987432;28;20207;-63
2022/05/11 13:53:34;;;;;;;2.00;1.10;;;;;;;;;;4994481;28;20533;-64
2022/05/11 13:56:01;;;;;;;4.70;1.30;;;;;;;;;;4991849;28;20609;-64
2022/05/11 13:58:33;;;;;;;3.10;1.13;;;;;;;;;;5003600;28;20208;-64
2022/05/11 14:01:04;;;;;;;3.63;1.50;;;;;;;;;;4997640;28;20203;-64
2022/05/11 14:03:33;;;;;;;2.87;1.40;;;;;;;;;;5001680;28;20223;-64
2022/05/11 14:06:03;;;;;;;2.90;1.53;;;;;;;;;;5000869;28;20195;-64
2022/05/11 14:08:30;;;;;;;13.60;1.63;;;;;;;;;;4994217;28;20313;-64
2022/05/11 14:10:58;;;;;;;1.60;1.20;;;;;;;;;;5008399;28;20211;-65
2022/05/11 14:13:25;;;;;;;2.37;1.53;;;;;;;;;;5006037;28;20215;-63
2022/05/11 14:15:53;;;;;;;3.00;1.33;;;;;;;;;;5006487;28;20277;-62
2022/05/11 14:18:20;;;;;;;3.23;1.60;;;;;;;;;;5003319;28;20645;-62
2022/05/11 14:20:49;;;;;;;3.60;1.37;;;;;;;;;;5008169;28;20275;-63
2022/05/11 14:23:18;;;;;;;3.13;1.77;;;;;;;;;;4991025;28;20213;-62
2022/05/11 14:25:51;;;;;;;1.77;1.60;;;;;;;;;;5010372;28;20183;-63
2022/05/11 14:28:24;;;;;;;1.70;1.30;;;;;;;;;;5000304;28;20274;-62
2022/05/11 14:30:54;;;;;;;2.73;1.30;;;;;;;;;;5007987;28;20211;-61
2022/05/11 14:33:24;;;;;;;1.70;1.50;;;;;;;;;;5008385;28;20203;-60
2022/05/11 14:35:55;;;;;;;1.50;1.40;;;;;;;;;;4999013;28;20192;-62
2022/05/11 14:38:25;;;;;;;3.50;1.50;;;;;;;;;;4988378;28;20274;-62
2022/05/11 14:40:53;;;;;;;2.33;1.60;;;;;;;;;;4996292;28;20693;-62
2022/05/11 14:43:26;;;;;;;3.67;1.63;;;;;;;;;;5001310;28;20191;-62
2022/05/11 14:46:03;;;;;;;1.40;1.30;;;;;;;;;;5007295;28;20242;-63
2022/05/11 14:48:37;;;;;;;2.83;1.97;;;;;;;;;;5012516;28;21710;-63
2022/05/11 14:51:11;;;;;;;3.80;1.53;;;;;;;;;;4994448;28;20215;-63
2022/05/11 14:53:41;;;;;;;3.60;1.80;;;;;;;;;;5007438;28;20223;-64
2022/05/11 14:56:08;;;;;;;3.10;1.90;;;;;;;;;;5009765;28;20194;-65
2022/05/11 15:04:40;;;;;;;3.23;1.90;;;;;;;;;;5008512;28;20200;-63
2022/05/11 15:07:13;;;;;;;2.60;1.87;;;;;;;;;;5012764;28;20245;-63
2022/05/11 15:09:48;;;;;;;2.73;1.70;;;;;;;;;;5008136;28;20258;-63
2022/05/11 15:15:22;;;;;;;2.83;2.13;;;;;;;;;;5007899;28;20561;-64
2022/05/11 15:18:06;;;;;;;2.30;2.07;;;;;;;;;;5007966;28;20707;-64
2022/05/11 15:20:37;;;;;;;2.90;1.60;;;;;;;;;;5004319;28;20230;-61
2022/05/11 15:23:30;;;;;;;3.40;2.10;;;;;;;;;;4987594;28;20224;-62
2022/05/11 15:26:01;;;;;;;3.60;1.80;;;;;;;;;;5016317;28;20203;-64
2022/05/11 15:28:30;;;;;;;4.03;1.90;;;;;;;;;;5018034;28;20203;-64
2022/05/11 15:30:57;;;;;;;3.70;1.90;;;;;;;;;;5026263;28;20242;-63
2022/05/11 15:33:34;;;;;;;3.90;1.90;;;;;;;;;;4995888;28;20216;-63
2022/05/11 15:36:05;;;;;;;2.07;1.60;;;;;;;;;;5019440;28;20535;-62
2022/05/11 15:38:36;;;;;;;5.20;2.37;;;;;;;;;;5015221;28;20325;-62
2022/05/11 15:41:07;;;;;;;3.17;1.90;;;;;;;;;;5024104;28;20261;-64
2022/05/11 15:43:37;;;;;;;3.53;1.97;;;;;;;;;;5016675;28;20252;-64
2022/05/11 15:46:08;;;;;;;3.00;1.73;;;;;;;;;;4999404;28;20222;-64
2022/05/11 15:48:37;;;;;;;3.37;2.03;;;;;;;;;;5009252;28;20280;-64
2022/05/11 15:51:13;;;;;;;2.43;1.90;;;;;;;;;;5009355;28;20208;-63
2022/05/11 15:53:46;;;;;;;2.73;1.90;;;;;;;;;;4999078;28;20203;-63
2022/05/11 15:56:19;;;;;;;2.73;2.20;;;;;;;;;;4996022;28;20214;-63
2022/05/11 15:58:46;;;;;;;3.33;2.00;;;;;;;;;;4980293;28;20211;-63
2022/05/11 16:01:28;;;;;;;2.43;1.90;;;;;;;;;;4987038;28;20196;-61
2022/05/11 16:04:08;;;;;;;2.07;1.63;;;;;;;;;;4984658;28;20422;-62
2022/05/11 16:06:38;;;;;;;3.67;1.93;;;;;;;;;;4996476;28;20207;-64
2022/05/11 16:09:14;;;;;;;2.57;1.93;;;;;;;;;;4998048;28;20200;-64
2022/05/11 16:11:42;;;;;;;2.60;1.53;;;;;;;;;;4996719;28;20227;-63
2022/05/11 16:14:10;;;;;;;3.10;1.70;;;;;;;;;;4992227;28;20208;-63